Time;durP1;ratioP1;P1;durP2;ratioP2;P2;SDS_P1;SDS_P2;PMS_P1;PMS_P2;Temp;Humidity;BMP_temperature;BMP_pressure;BME280_temperature;BME280_humidity;BME280_pressure;Samples;Min_cycle;Max_cycle;Signal;HPM_P1;HPM_P2
2023/06/27 00:01:41;;;;;;;19.90;5.40;;;;;;;22.07;53.63;100876.38;5011315;28;20470;-74
2023/06/27 00:04:07;;;;;;;19.98;5.47;;;;;;;21.96;53.90;100877.28;5011353;28;20871;-74
2023/06/27 00:06:37;;;;;;;19.67;5.23;;;;;;;21.80;54.03;100868.06;5011353;28;20396;-75
2023/06/27 00:09:05;;;;;;;18.37;5.07;;;;;;;21.71;54.66;100869.50;5011357;28;20399;-73
2023/06/27 00:11:31;;;;;;;20.05;5.63;;;;;;;21.63;54.92;100875.31;5011485;28;20405;-74
2023/06/27 00:13:58;;;;;;;18.33;5.20;;;;;;;21.53;55.40;100867.81;5010782;28;20848;-74
2023/06/27 00:16:24;;;;;;;16.25;4.72;;;;;;;21.47;55.33;100876.88;5011693;28;20398;-74
2023/06/27 00:18:50;;;;;;;17.67;4.78;;;;;;;21.39;55.74;100880.69;5010198;28;20951;-75
2023/06/27 00:21:16;;;;;;;13.75;4.30;;;;;;;21.42;55.55;100866.75;5010446;28;20459;-75
2023/06/27 00:23:43;;;;;;;14.93;5.07;;;;;;;21.26;56.05;100870.19;5010088;28;20384;-74
2023/06/27 00:26:10;;;;;;;14.38;4.82;;;;;;;21.29;55.71;100875.13;5010896;28;20482;-75
2023/06/27 00:28:35;;;;;;;15.38;4.88;;;;;;;21.19;56.41;100875.69;5010652;28;20848;-74
2023/06/27 00:31:02;;;;;;;14.93;4.50;;;;;;;21.10;56.67;100880.63;5010863;28;20467;-75
2023/06/27 00:33:28;;;;;;;13.77;4.68;;;;;;;21.10;56.48;100869.03;5011234;28;20423;-75
2023/06/27 00:35:53;;;;;;;16.30;4.97;;;;;;;21.13;56.24;100882.06;5011018;28;20748;-74
2023/06/27 00:38:19;;;;;;;16.52;4.60;;;;;;;21.10;56.32;100883.31;5010832;28;20445;-75
2023/06/27 00:40:44;;;;;;;16.97;4.83;;;;;;;21.02;56.64;100872.09;4993799;28;20380;-74
2023/06/27 00:43:10;;;;;;;15.27;4.97;;;;;;;21.06;56.44;100873.25;5010647;28;20391;-74
2023/06/27 00:45:35;;;;;;;13.35;4.90;;;;;;;21.05;56.37;100869.75;5011044;28;20380;-74
2023/06/27 00:48:02;;;;;;;14.67;4.97;;;;;;;21.07;56.44;100862.25;5010800;28;20911;-75
2023/06/27 00:50:28;;;;;;;15.88;4.78;;;;;;;21.09;56.35;100870.09;5010715;28;20390;-74
2023/06/27 00:52:56;;;;;;;14.85;4.53;;;;;;;21.10;56.28;100871.72;5010620;28;20403;-74
2023/06/27 00:55:21;;;;;;;14.10;5.18;;;;;;;21.17;56.05;100875.94;5010763;28;20792;-74
2023/06/27 00:57:48;;;;;;;13.18;4.85;;;;;;;21.20;56.08;100874.66;5010446;28;20808;-74
2023/06/27 01:00:17;;;;;;;13.88;4.72;;;;;;;21.18;56.08;100866.00;5010624;28;20388;-74
2023/06/27 01:02:45;;;;;;;16.57;5.00;;;;;;;21.15;56.09;100869.97;5010451;28;20408;-74
2023/06/27 01:05:12;;;;;;;15.30;5.07;;;;;;;21.16;56.02;100860.84;5011000;28;20387;-75
2023/06/27 01:08:15;;;;;;;18.13;5.00;;;;;;;21.14;56.03;100857.56;5010910;28;20426;-74
2023/06/27 01:10:40;;;;;;;15.88;5.05;;;;;;;21.08;56.28;100871.97;4931315;29;20387;-75
2023/06/27 01:13:16;;;;;;;17.70;5.07;;;;;;;21.03;56.37;100866.47;4993672;28;20408;-75
2023/06/27 01:15:42;;;;;;;14.63;5.13;;;;;;;21.07;56.29;100870.34;5010503;28;20463;-75
2023/06/27 01:18:11;;;;;;;14.80;4.90;;;;;;;21.05;56.18;100861.69;5010536;28;20380;-74
2023/06/27 01:20:37;;;;;;;14.57;5.07;;;;;;;21.09;56.26;100872.81;5010493;28;20455;-75
2023/06/27 01:23:09;;;;;;;17.20;4.97;;;;;;;20.99;56.36;100868.00;5010581;28;20430;-74
2023/06/27 01:25:37;;;;;;;16.20;4.87;;;;;;;21.02;56.45;100869.41;4993156;28;20423;-74
2023/06/27 01:28:05;;;;;;;14.50;5.00;;;;;;;21.06;56.24;100867.88;5010398;28;20376;-74
2023/06/27 01:30:34;;;;;;;15.83;5.30;;;;;;;21.13;55.99;100869.38;5010619;28;20402;-75
2023/06/27 01:33:05;;;;;;;16.90;5.18;;;;;;;21.15;55.80;100859.19;5010425;28;20779;-74
2023/06/27 01:35:40;;;;;;;14.55;5.32;;;;;;;21.20;55.87;100871.97;5014195;28;20836;-74
2023/06/27 01:38:10;;;;;;;19.00;5.35;;;;;;;21.18;55.79;100868.69;5014130;28;20382;-75
2023/06/27 01:40:39;;;;;;;17.67;5.20;;;;;;;21.12;56.09;100864.22;5013768;28;20364;-75
2023/06/27 01:43:10;;;;;;;18.25;5.35;;;;;;;21.06;56.27;100868.69;5013950;28;20446;-75
2023/06/27 01:45:38;;;;;;;13.13;4.78;;;;;;;21.02;56.29;100864.03;5014106;28;20466;-75
2023/06/27 01:48:04;;;;;;;15.52;5.40;;;;;;;20.95;56.50;100869.53;5012071;28;20376;-75
2023/06/27 01:50:30;;;;;;;19.67;5.40;;;;;;;20.89;56.72;100871.28;4996113;28;20381;-74
2023/06/27 01:52:56;;;;;;;19.57;5.83;;;;;;;20.97;56.41;100862.03;5004778;28;20418;-75
2023/06/27 01:55:21;;;;;;;16.17;5.25;;;;;;;20.91;56.57;100868.38;5013502;28;20388;-73
2023/06/27 01:57:49;;;;;;;21.50;5.70;;;;;;;20.86;56.56;100860.97;5013563;28;20871;-74
2023/06/27 02:00:15;;;;;;;18.27;5.57;;;;;;;20.88;56.69;100872.31;4993641;28;20405;-74
2023/06/27 02:02:40;;;;;;;16.50;5.47;;;;;;;20.75;56.95;100870.69;4993732;28;20405;-74
2023/06/27 02:05:07;;;;;;;16.50;5.33;;;;;;;20.62;57.23;100865.53;4993010;28;20397;-74
2023/06/27 02:07:33;;;;;;;17.02;5.28;;;;;;;20.61;57.27;100858.50;4991533;28;20452;-73
2023/06/27 02:09:58;;;;;;;16.87;5.73;;;;;;;20.63;57.37;100875.25;4997767;28;20880;-73
2023/06/27 02:12:24;;;;;;;19.47;5.83;;;;;;;20.47;57.80;100865.13;5010387;28;20410;-74
2023/06/27 02:14:49;;;;;;;17.48;5.53;;;;;;;20.46;57.90;100879.66;5011805;28;20459;-73
2023/06/27 02:17:15;;;;;;;18.63;4.93;;;;;;;20.31;58.26;100867.47;5012354;28;20380;-74
2023/06/27 02:19:40;;;;;;;13.30;4.60;;;;;;;20.38;58.12;100870.88;5012637;28;20390;-74
2023/06/27 02:22:06;;;;;;;13.65;5.00;;;;;;;20.38;58.25;100870.88;5013274;28;20993;-74
2023/06/27 02:24:31;;;;;;;14.47;5.30;;;;;;;20.41;58.01;100874.97;5012761;28;20383;-74
2023/06/27 02:26:56;;;;;;;15.07;5.00;;;;;;;20.40;57.95;100868.75;5012572;28;20387;-74
2023/06/27 02:29:22;;;;;;;15.07;5.35;;;;;;;20.42;57.92;100876.63;5013070;28;20864;-73
2023/06/27 02:31:47;;;;;;;19.17;5.67;;;;;;;20.38;57.94;100876.25;5024611;28;20406;-74
2023/06/27 02:34:13;;;;;;;17.43;5.80;;;;;;;20.42;57.91;100877.41;5020010;28;20422;-74
2023/06/27 02:36:38;;;;;;;18.27;5.70;;;;;;;20.38;57.88;100884.34;5017635;28;20377;-74
2023/06/27 02:39:04;;;;;;;20.53;5.40;;;;;;;20.38;58.02;100888.88;5013483;28;20399;-74
2023/06/27 02:41:29;;;;;;;17.10;5.40;;;;;;;20.34;57.91;100882.31;5011120;28;20890;-74
2023/06/27 02:43:55;;;;;;;17.08;5.07;;;;;;;20.37;57.70;100880.00;5011392;28;20919;-75
2023/06/27 02:46:20;;;;;;;13.97;5.03;;;;;;;20.35;57.65;100876.72;5011531;28;20817;-75
2023/06/27 02:48:45;;;;;;;18.77;5.30;;;;;;;20.34;57.75;100888.50;5011787;28;20391;-74
2023/06/27 02:51:11;;;;;;;16.50;5.32;;;;;;;20.36;57.67;100881.03;5011858;28;20734;-74
2023/06/27 02:53:37;;;;;;;17.13;5.60;;;;;;;20.30;57.92;100892.72;5010271;28;20380;-74
2023/06/27 02:56:03;;;;;;;15.17;5.33;;;;;;;20.33;57.85;100894.97;5010707;28;20448;-74
2023/06/27 02:58:29;;;;;;;18.40;5.15;;;;;;;20.31;57.95;100890.84;5010633;28;20739;-74
2023/06/27 03:00:55;;;;;;;15.10;5.03;;;;;;;20.33;57.82;100884.19;5011354;28;20511;-74
2023/06/27 03:03:20;;;;;;;14.35;5.43;;;;;;;20.31;57.91;100894.38;5011377;28;20763;-75
2023/06/27 03:05:46;;;;;;;17.43;5.40;;;;;;;20.29;57.89;100896.47;5010894;28;20373;-74
2023/06/27 03:08:11;;;;;;;16.90;5.63;;;;;;;20.10;58.53;100900.28;5010250;28;20376;-74
2023/06/27 03:10:37;;;;;;;15.27;5.43;;;;;;;20.03;58.75;100893.09;5011145;28;20860;-74
2023/06/27 03:13:02;;;;;;;13.20;5.00;;;;;;;20.30;58.00;100903.50;5011656;28;20407;-74
2023/06/27 03:15:28;;;;;;;17.63;5.00;;;;;;;20.36;57.78;100913.34;5011893;28;20890;-74
2023/06/27 03:17:54;;;;;;;17.58;5.07;;;;;;;20.24;58.23;100912.50;5012201;28;20434;-74
2023/06/27 03:20:20;;;;;;;16.70;5.10;;;;;;;20.16;58.46;100916.31;5012096;28;20719;-75
2023/06/27 03:22:46;;;;;;;18.40;4.88;;;;;;;20.10;58.83;100913.75;5011484;28;20438;-74
2023/06/27 03:25:12;;;;;;;16.90;4.82;;;;;;;20.17;58.43;100909.91;4994339;28;20384;-75
2023/06/27 03:27:37;;;;;;;18.60;5.53;;;;;;;20.29;58.26;100918.00;5011858;28;20803;-75
2023/06/27 03:30:04;;;;;;;16.50;4.88;;;;;;;20.48;57.82;100924.16;5011876;28;20398;-75
2023/06/27 03:32:29;;;;;;;13.18;4.32;;;;;;;20.36;57.98;100909.81;5010788;28;20416;-75
2023/06/27 03:34:55;;;;;;;15.20;5.40;;;;;;;20.43;57.96;100908.66;5012257;28;20922;-75
2023/06/27 03:37:20;;;;;;;18.03;5.80;;;;;;;20.54;57.57;100922.41;5011319;28;20384;-75
2023/06/27 03:39:46;;;;;;;16.43;5.13;;;;;;;20.68;57.21;100921.16;5011742;28;20394;-76
2023/06/27 03:42:11;;;;;;;21.75;5.75;;;;;;;20.90;56.69;100926.00;5011448;28;20928;-76
2023/06/27 03:44:37;;;;;;;14.20;5.00;;;;;;;20.94;56.37;100924.47;5011345;28;20433;-75
2023/06/27 03:47:03;;;;;;;21.23;5.95;;;;;;;21.12;56.19;100928.91;4994215;28;20381;-74
2023/06/27 03:49:29;;;;;;;16.48;5.38;;;;;;;21.33;55.85;100922.91;5011488;28;20372;-75
2023/06/27 03:51:55;;;;;;;17.23;5.10;;;;;;;21.53;55.47;100924.44;5011200;28;20752;-75
2023/06/27 03:54:21;;;;;;;17.80;5.50;;;;;;;21.65;54.94;100922.56;5011423;28;20384;-75
2023/06/27 03:56:47;;;;;;;19.75;5.38;;;;;;;21.72;54.77;100938.63;4993400;28;20372;-75
2023/06/27 03:59:12;;;;;;;14.88;5.65;;;;;;;21.76;54.50;100924.38;4993195;28;20384;-75
2023/06/27 04:01:41;;;;;;;16.67;6.00;;;;;;;21.78;54.58;100918.75;5003656;28;20425;-75
2023/06/27 04:04:07;;;;;;;14.38;5.50;;;;;;;21.82;54.48;100913.69;4990552;28;20423;-76
2023/06/27 04:06:33;;;;;;;17.58;5.70;;;;;;;21.85;54.23;100927.53;5007206;28;20400;-74
2023/06/27 04:08:58;;;;;;;14.02;4.95;;;;;;;22.03;53.92;100921.13;5003957;28;20477;-75
2023/06/27 04:11:24;;;;;;;18.67;5.60;;;;;;;21.97;53.72;100919.41;5009553;28;20408;-75
2023/06/27 04:13:49;;;;;;;23.33;5.80;;;;;;;22.08;53.57;100918.53;5009668;28;20400;-75
2023/06/27 04:16:15;;;;;;;14.23;5.43;;;;;;;22.15;53.14;100921.91;5010030;28;20392;-75
2023/06/27 04:18:40;;;;;;;13.87;5.00;;;;;;;22.44;52.91;100931.91;5011756;28;20475;-75
2023/06/27 04:21:06;;;;;;;17.87;5.67;;;;;;;22.60;52.43;100920.28;5010022;28;20392;-75
2023/06/27 04:23:32;;;;;;;14.18;4.80;;;;;;;22.64;52.41;100917.91;5011230;28;20396;-74
2023/06/27 04:26:07;;;;;;;17.80;5.10;;;;;;;22.76;52.17;100932.16;5011603;28;20392;-74
2023/06/27 04:28:33;;;;;;;13.80;5.38;;;;;;;22.67;52.01;100925.50;5011769;28;20388;-75
2023/06/27 04:31:00;;;;;;;12.80;5.23;;;;;;;22.63;52.41;100924.38;5011038;28;20730;-74
2023/06/27 04:33:27;;;;;;;16.85;5.88;;;;;;;22.57;52.52;100923.47;5012351;28;20384;-74
2023/06/27 04:35:54;;;;;;;22.38;6.10;;;;;;;22.51;52.66;100922.56;4997632;28;20389;-75
2023/06/27 04:38:20;;;;;;;17.92;6.50;;;;;;;22.54;52.87;100918.53;5011021;28;20446;-74
2023/06/27 04:40:45;;;;;;;17.45;5.78;;;;;;;22.68;52.75;100932.56;5010873;28;20387;-74
2023/06/27 04:43:11;;;;;;;16.77;6.00;;;;;;;22.78;52.52;100930.03;5010927;28;20796;-75
2023/06/27 04:45:36;;;;;;;20.03;5.80;;;;;;;23.09;52.14;100939.44;5002876;28;20395;-74
2023/06/27 04:48:02;;;;;;;20.90;5.73;;;;;;;23.11;52.02;100944.59;5010536;28;20394;-75
2023/06/27 04:50:29;;;;;;;16.75;5.88;;;;;;;23.14;51.88;100936.00;5010125;28;20420;-75
2023/06/27 04:52:54;;;;;;;23.10;6.07;;;;;;;23.34;51.54;100940.06;5008733;28;20411;-76
2023/06/27 04:55:20;;;;;;;20.43;7.03;;;;;;;23.35;51.71;100937.09;5010359;28;20934;-75
2023/06/27 04:57:45;;;;;;;19.67;6.87;;;;;;;23.35;51.87;100944.41;5002692;28;20412;-75
2023/06/27 05:00:11;;;;;;;14.95;6.03;;;;;;;23.34;51.69;100948.19;5008612;28;20764;-74
2023/06/27 05:02:37;;;;;;;19.67;5.63;;;;;;;23.46;51.49;100947.00;5005009;28;20548;-74
2023/06/27 05:05:04;;;;;;;16.25;5.75;;;;;;;23.49;51.40;100942.97;5007477;28;20432;-75
2023/06/27 05:07:30;;;;;;;13.60;5.75;;;;;;;23.59;51.48;100943.09;5006076;28;20667;-74
2023/06/27 05:09:55;;;;;;;15.23;5.53;;;;;;;23.47;51.46;100945.09;5012236;28;20895;-75
2023/06/27 05:12:21;;;;;;;12.90;5.32;;;;;;;23.73;51.31;100943.53;5011570;28;21323;-76
2023/06/27 05:14:47;;;;;;;13.73;6.00;;;;;;;23.84;51.05;100953.47;5011426;28;20391;-77
2023/06/27 05:17:12;;;;;;;12.53;5.23;;;;;;;23.73;51.12;100951.66;5013567;28;20419;-75
2023/06/27 05:19:38;;;;;;;15.95;5.57;;;;;;;23.79;50.92;100952.56;5009737;28;20389;-75
2023/06/27 05:22:03;;;;;;;12.37;5.20;;;;;;;24.11;50.66;100944.56;4999845;28;20492;-76
2023/06/27 05:24:29;;;;;;;9.57;5.17;;;;;;;24.15;50.08;100944.84;4995323;28;20420;-76
2023/06/27 05:26:54;;;;;;;5.47;4.15;;;;;;;24.01;50.27;100937.13;5013736;28;20392;-75
2023/06/27 05:29:20;;;;;;;8.82;4.65;;;;;;;23.78;50.54;100948.19;5014398;28;20394;-75
2023/06/27 05:31:45;;;;;;;7.90;4.77;;;;;;;23.60;51.30;100938.50;5013549;28;20396;-76
2023/06/27 05:34:12;;;;;;;7.83;4.47;;;;;;;23.88;50.54;100937.53;5013809;28;20860;-76
2023/06/27 05:36:38;;;;;;;7.63;4.68;;;;;;;24.01;50.49;100947.13;5013747;28;20489;-75
2023/06/27 05:39:03;;;;;;;9.90;4.87;;;;;;;24.35;49.79;100939.63;5013363;28;20846;-75
2023/06/27 05:41:30;;;;;;;7.60;4.20;;;;;;;24.22;49.73;100942.75;5012738;28;20388;-75
2023/06/27 05:43:56;;;;;;;8.40;4.82;;;;;;;23.95;50.51;100932.72;5013645;28;20392;-76
2023/06/27 05:46:21;;;;;;;8.65;5.03;;;;;;;23.93;51.27;100934.03;5013103;28;20387;-75
2023/06/27 05:48:47;;;;;;;7.33;4.77;;;;;;;24.22;50.59;100938.16;5011310;28;20388;-75
2023/06/27 05:51:12;;;;;;;9.03;4.70;;;;;;;24.68;49.75;100936.97;5014201;28;20387;-76
2023/06/27 05:53:39;;;;;;;10.57;5.38;;;;;;;24.76;49.87;100933.78;5012448;28;20482;-75
2023/06/27 05:56:04;;;;;;;5.85;4.40;;;;;;;25.26;48.66;100935.19;5013398;28;20392;-76
2023/06/27 05:58:34;;;;;;;7.00;4.20;;;;;;;25.37;47.63;100928.78;5012200;28;20411;-76
2023/06/27 06:01:00;;;;;;;4.50;3.55;;;;;;;25.17;46.88;100934.88;5011904;28;21399;-76
2023/06/27 06:03:25;;;;;;;9.03;4.57;;;;;;;25.27;47.11;100927.91;4991025;28;20416;-75
2023/06/27 06:05:51;;;;;;;10.40;4.47;;;;;;;25.69;46.78;100944.09;5008895;28;20388;-75
2023/06/27 06:08:16;;;;;;;8.37;4.70;;;;;;;25.45;46.81;100935.59;5012227;28;20395;-75
2023/06/27 06:10:42;;;;;;;7.97;4.67;;;;;;;25.59;46.16;100937.81;5012516;28;20418;-76
2023/06/27 06:13:07;;;;;;;8.03;4.30;;;;;;;25.43;46.23;100945.09;5013249;28;20511;-75
2023/06/27 06:15:33;;;;;;;13.98;4.60;;;;;;;25.68;45.73;100936.22;5007575;28;20392;-75
2023/06/27 06:17:58;;;;;;;12.93;5.00;;;;;;;25.82;45.71;100933.81;5012030;28;20392;-75
2023/06/27 06:20:24;;;;;;;12.30;4.90;;;;;;;26.05;45.42;100921.69;5000008;28;20412;-74
2023/06/27 06:22:49;;;;;;;5.53;3.80;;;;;;;26.06;45.01;100929.56;5011072;28;20407;-76
2023/06/27 06:25:16;;;;;;;7.88;3.97;;;;;;;25.93;45.36;100939.06;5006602;28;20899;-74
2023/06/27 06:27:41;;;;;;;7.45;4.30;;;;;;;26.03;45.23;100943.69;5005430;28;20489;-76
2023/06/27 06:30:08;;;;;;;6.43;4.37;;;;;;;26.11;45.50;100936.94;5014645;28;20845;-74
2023/06/27 06:32:33;;;;;;;5.75;4.43;;;;;;;26.52;45.02;100934.25;5014046;28;20490;-77
2023/06/27 06:34:59;;;;;;;6.68;4.43;;;;;;;26.38;44.98;100922.28;5013304;28;20396;-76
2023/06/27 06:37:24;;;;;;;4.47;4.00;;;;;;;26.67;44.46;100930.75;5014007;28;20462;-74
2023/06/27 06:39:50;;;;;;;6.00;3.67;;;;;;;26.64;44.24;100921.22;5014029;28;20848;-76
2023/06/27 06:42:15;;;;;;;6.93;4.10;;;;;;;26.42;44.43;100924.19;5013624;28;20495;-75
2023/06/27 06:44:41;;;;;;;5.93;3.60;;;;;;;26.20;43.95;100921.72;5013678;28;20462;-74
2023/06/27 06:47:07;;;;;;;10.13;4.25;;;;;;;26.42;44.59;100920.66;5013925;28;20420;-75
2023/06/27 06:49:32;;;;;;;14.57;4.60;;;;;;;26.65;44.32;100927.47;5013879;28;20383;-75
2023/06/27 06:51:57;;;;;;;8.80;4.30;;;;;;;26.56;43.96;100926.34;5013201;28;20408;-74
2023/06/27 06:54:23;;;;;;;8.25;4.20;;;;;;;26.74;43.63;100920.41;5013065;28;20400;-75
2023/06/27 06:56:51;;;;;;;6.20;4.00;;;;;;;26.61;43.76;100919.03;5013055;28;20438;-75
2023/06/27 06:59:17;;;;;;;5.18;3.80;;;;;;;26.94;43.69;100927.72;5013303;28;20403;-75
2023/06/27 07:01:42;;;;;;;10.50;4.30;;;;;;;26.97;43.29;100916.28;5011587;28;20408;-75
2023/06/27 07:04:08;;;;;;;7.40;4.10;;;;;;;26.83;42.92;100920.66;5012189;28;20404;-75
2023/06/27 07:06:33;;;;;;;6.70;3.90;;;;;;;26.92;42.82;100918.19;5013185;28;20402;-76
2023/06/27 07:08:59;;;;;;;8.32;4.32;;;;;;;26.94;42.88;100921.47;5012675;28;20753;-74
2023/06/27 07:11:24;;;;;;;10.03;4.30;;;;;;;26.99;42.97;100922.28;5012789;28;20733;-74
2023/06/27 07:13:50;;;;;;;6.47;4.07;;;;;;;27.20;43.11;100922.22;5013313;28;20384;-75
2023/06/27 07:16:15;;;;;;;5.67;3.50;;;;;;;27.17;42.41;100928.22;4995413;28;20399;-75
2023/06/27 07:18:41;;;;;;;4.70;3.57;;;;;;;27.19;42.76;100926.88;5011830;28;20747;-75
2023/06/27 07:21:06;;;;;;;5.95;4.03;;;;;;;27.33;43.12;100918.13;5012143;28;20434;-75
2023/06/27 07:23:32;;;;;;;14.23;4.80;;;;;;;27.17;42.88;100926.31;5012464;28;20479;-75
2023/06/27 07:25:57;;;;;;;6.80;3.80;;;;;;;27.27;43.20;100922.78;5013224;28;20405;-76
2023/06/27 07:28:23;;;;;;;7.07;4.00;;;;;;;27.70;42.95;100922.34;5013075;28;20403;-75
2023/06/27 07:30:48;;;;;;;5.50;3.90;;;;;;;27.94;41.58;100931.50;5011531;28;20388;-75
2023/06/27 07:33:14;;;;;;;7.80;4.63;;;;;;;27.98;42.00;100910.78;5012937;28;20408;-75
2023/06/27 07:35:39;;;;;;;6.40;4.17;;;;;;;28.01;41.70;100914.84;5012925;28;20461;-75
2023/06/27 07:38:05;;;;;;;4.97;3.93;;;;;;;28.14;41.62;100910.66;5013142;28;20432;-75
2023/06/27 07:40:30;;;;;;;5.50;4.10;;;;;;;27.93;40.56;100920.88;5012498;28;20411;-75
2023/06/27 07:42:56;;;;;;;6.07;4.00;;;;;;;27.97;39.53;100913.78;5012554;28;20855;-74
2023/06/27 07:45:21;;;;;;;6.38;3.67;;;;;;;28.30;40.15;100904.00;5012612;28;21077;-77
2023/06/27 07:47:46;;;;;;;7.90;4.22;;;;;;;28.38;40.01;100905.31;5013109;28;20454;-75
2023/06/27 07:50:12;;;;;;;8.00;3.93;;;;;;;28.71;39.23;100906.41;5014149;28;20380;-76
2023/06/27 07:52:39;;;;;;;5.90;3.80;;;;;;;28.75;39.35;100898.47;5012875;28;20407;-75
2023/06/27 07:55:05;;;;;;;8.45;3.80;;;;;;;29.20;39.10;100907.28;5011797;28;20396;-75
2023/06/27 07:57:31;;;;;;;6.07;3.95;;;;;;;29.18;38.41;100904.03;5010877;28;20395;-76
2023/06/27 07:59:56;;;;;;;5.78;4.40;;;;;;;29.18;38.53;100909.50;5010407;28;20722;-75
2023/06/27 08:02:22;;;;;;;9.70;4.13;;;;;;;29.24;38.42;100902.06;5011794;28;20412;-75
2023/06/27 08:04:48;;;;;;;6.80;4.00;;;;;;;28.96;37.47;100905.34;5012008;28;20411;-76
2023/06/27 08:07:13;;;;;;;6.03;4.53;;;;;;;28.94;37.33;100904.00;5011241;28;20429;-75
2023/06/27 08:09:38;;;;;;;5.80;4.00;;;;;;;29.16;37.45;100903.53;5011636;28;20464;-76
2023/06/27 08:12:06;;;;;;;5.33;3.60;;;;;;;29.44;36.74;100904.56;5011642;28;20465;-75
2023/06/27 08:14:31;;;;;;;5.82;3.72;;;;;;;29.67;36.46;100902.06;5010873;28;20772;-75
2023/06/27 08:16:57;;;;;;;5.68;4.10;;;;;;;29.29;36.25;100905.53;5012386;28;20653;-76
2023/06/27 08:19:22;;;;;;;7.43;3.90;;;;;;;29.29;36.75;100893.81;5012854;28;20391;-75
2023/06/27 08:21:48;;;;;;;8.13;4.00;;;;;;;29.44;36.66;100904.56;5012260;28;20387;-75
2023/06/27 08:24:13;;;;;;;5.03;3.53;;;;;;;29.08;36.23;100904.13;5013249;28;20399;-77
2023/06/27 08:26:39;;;;;;;6.35;3.92;;;;;;;29.24;36.63;100900.13;5012618;28;20383;-76
2023/06/27 08:29:04;;;;;;;4.45;3.78;;;;;;;29.76;36.70;100894.06;5013030;28;20388;-74
2023/06/27 08:31:30;;;;;;;4.60;3.25;;;;;;;29.66;35.33;100904.00;4996235;28;20407;-76
2023/06/27 08:33:55;;;;;;;6.20;3.80;;;;;;;29.63;35.65;100906.50;5013063;28;20384;-76
2023/06/27 08:36:21;;;;;;;5.00;3.43;;;;;;;29.53;35.62;100900.06;5012349;28;20410;-75
2023/06/27 08:38:46;;;;;;;5.73;3.63;;;;;;;29.67;35.80;100894.66;5013147;28;20387;-75
2023/06/27 08:41:13;;;;;;;4.57;3.80;;;;;;;29.78;35.63;100894.56;5011954;28;20384;-77
2023/06/27 08:43:39;;;;;;;5.45;3.60;;;;;;;30.10;35.68;100899.28;5011654;28;20467;-75
2023/06/27 08:46:08;;;;;;;6.07;3.83;;;;;;;30.42;35.45;100893.06;5011765;28;20475;-77
2023/06/27 08:48:37;;;;;;;4.60;3.60;;;;;;;30.74;36.01;100885.94;5012094;28;20434;-74
2023/06/27 08:51:04;;;;;;;7.15;3.90;;;;;;;30.74;35.07;100890.56;4994374;28;20479;-77
2023/06/27 08:53:32;;;;;;;8.30;3.90;;;;;;;30.64;35.11;100888.84;4993710;28;20413;-75
2023/06/27 08:56:08;;;;;;;12.63;4.50;;;;;;;30.82;34.61;100906.31;4991040;28;20496;-75
2023/06/27 08:58:51;;;;;;;7.55;3.40;;;;;;;29.83;33.86;100897.22;4985025;28;20423;-73
2023/06/27 09:01:18;;;;;;;11.70;4.30;;;;;;;30.00;34.19;100893.97;4989914;28;20446;-75
2023/06/27 09:03:47;;;;;;;9.20;4.03;;;;;;;30.47;34.28;100889.44;4974700;28;20973;-75
2023/06/27 09:06:15;;;;;;;5.27;3.50;;;;;;;30.66;33.55;100898.38;4986086;28;20425;-75
2023/06/27 09:08:41;;;;;;;8.60;4.10;;;;;;;30.77;33.64;100896.25;5001073;28;20484;-76
2023/06/27 09:11:09;;;;;;;5.27;4.33;;;;;;;30.43;33.56;100886.47;4989973;28;20398;-76
2023/06/27 09:13:36;;;;;;;4.50;3.22;;;;;;;30.22;34.07;100879.69;4991469;28;20396;-75
2023/06/27 09:16:03;;;;;;;6.07;3.73;;;;;;;30.50;34.20;100883.34;4973136;28;20401;-77
2023/06/27 09:18:29;;;;;;;9.98;4.25;;;;;;;30.70;33.95;100887.63;4990660;28;20397;-75
2023/06/27 09:20:56;;;;;;;4.67;3.43;;;;;;;30.92;34.05;100883.44;4987977;28;20936;-75
2023/06/27 09:23:22;;;;;;;6.07;3.80;;;;;;;30.96;34.02;100882.53;4989431;28;20393;-75
2023/06/27 09:26:11;;;;;;;5.88;3.75;;;;;;;30.72;33.66;100893.63;4988307;28;20412;-76
2023/06/27 09:28:50;;;;;;;5.90;3.67;;;;;;;30.72;33.15;100893.63;4988422;28;20397;-75
2023/06/27 09:31:21;;;;;;;6.50;3.70;;;;;;;30.70;33.29;100887.63;4988974;28;20377;-75
2023/06/27 09:33:48;;;;;;;7.10;3.90;;;;;;;30.67;33.02;100891.00;4988579;28;20382;-76
2023/06/27 09:36:36;;;;;;;7.18;3.40;;;;;;;30.81;32.62;100893.72;4991386;28;20465;-76
2023/06/27 09:39:15;;;;;;;4.43;3.45;;;;;;;30.54;32.55;100891.75;4998443;28;20398;-75
2023/06/27 09:41:47;;;;;;;4.35;3.35;;;;;;;30.94;32.32;100886.69;4991006;28;20380;-74
2023/06/27 09:44:13;;;;;;;5.38;3.47;;;;;;;30.71;32.53;100893.94;4990591;28;20397;-75
2023/06/27 09:46:40;;;;;;;7.53;3.70;;;;;;;30.45;32.97;100897.94;4990791;28;20763;-77
2023/06/27 09:49:07;;;;;;;5.70;3.30;;;;;;;30.83;32.32;100886.84;4990991;28;20378;-76
2023/06/27 09:51:32;;;;;;;5.35;3.35;;;;;;;30.74;30.97;100888.66;4991122;28;20397;-76
2023/06/27 09:53:58;;;;;;;6.90;3.73;;;;;;;30.72;31.07;100896.38;4991045;28;20393;-75
2023/06/27 09:56:31;;;;;;;5.40;3.67;;;;;;;30.39;32.09;100898.31;4995133;28;20859;-75
2023/06/27 09:59:06;;;;;;;5.97;3.50;;;;;;;30.71;32.11;100886.53;4995587;28;20887;-76
2023/06/27 10:01:34;;;;;;;6.43;3.55;;;;;;;30.63;31.76;100903.63;4994312;28;20468;-76
2023/06/27 10:03:59;;;;;;;7.93;3.92;;;;;;;30.41;32.09;100880.47;4995366;28;20382;-76
2023/06/27 10:06:25;;;;;;;7.80;3.97;;;;;;;30.30;32.02;100887.19;4995719;28;20870;-77
2023/06/27 10:08:50;;;;;;;5.37;3.10;;;;;;;29.99;31.98;100895.88;4993404;28;20386;-75
2023/06/27 10:11:16;;;;;;;5.80;3.00;;;;;;;30.35;31.61;100886.34;4992940;28;20425;-76
2023/06/27 10:13:42;;;;;;;5.68;3.78;;;;;;;30.38;31.73;100880.25;4995243;28;20417;-76
2023/06/27 10:16:08;;;;;;;6.70;3.90;;;;;;;30.67;32.29;100878.13;4994532;28;21488;-76
2023/06/27 10:18:34;;;;;;;8.05;3.90;;;;;;;30.76;31.67;100870.03;4994010;28;20392;-75
2023/06/27 10:20:59;;;;;;;7.97;3.87;;;;;;;30.87;31.46;100871.44;4991953;28;20381;-75
2023/06/27 10:23:25;;;;;;;6.50;3.53;;;;;;;30.80;31.87;100879.25;4993234;28;20401;-76
2023/06/27 10:25:52;;;;;;;5.57;3.58;;;;;;;30.88;31.85;100862.13;4993704;28;20382;-75
2023/06/27 10:28:19;;;;;;;7.43;3.80;;;;;;;30.94;30.77;100857.38;4992160;28;20805;-74
2023/06/27 10:30:46;;;;;;;7.97;4.03;;;;;;;31.09;31.31;100852.72;4994252;28;20585;-75
2023/06/27 10:33:27;;;;;;;7.60;3.95;;;;;;;31.17;31.58;100855.56;4977743;28;20480;-76
2023/06/27 10:35:57;;;;;;;6.47;3.90;;;;;;;31.21;31.02;100856.56;4995251;28;20381;-75
2023/06/27 10:38:23;;;;;;;9.45;3.80;;;;;;;31.36;30.76;100860.91;4994234;28;20374;-75
2023/06/27 10:41:06;;;;;;;11.97;4.10;;;;;;;31.14;30.67;100852.63;4995729;28;20390;-76
2023/06/27 10:43:47;;;;;;;11.70;4.40;;;;;;;31.34;30.65;100851.38;4994066;28;20486;-76
2023/06/27 10:46:29;;;;;;;7.93;3.65;;;;;;;31.02;29.84;100864.06;4994790;28;20382;-75
2023/06/27 10:48:59;;;;;;;4.22;2.85;;;;;;;30.57;29.91;100848.19;4994512;28;20897;-77
2023/06/27 10:51:34;;;;;;;5.13;3.30;;;;;;;30.75;30.44;100843.75;4994761;28;20473;-75
2023/06/27 10:54:17;;;;;;;7.47;3.85;;;;;;;31.00;30.76;100850.69;4993368;28;20539;-74
2023/06/27 10:56:45;;;;;;;5.03;3.50;;;;;;;31.12;30.12;100843.91;4994216;28;20861;-76
2023/06/27 10:59:16;;;;;;;5.03;3.00;;;;;;;30.96;29.05;100838.72;4993629;28;20388;-76
2023/06/27 11:02:04;;;;;;;5.95;3.30;;;;;;;30.85;29.18;100843.56;4993346;28;20491;-76
2023/06/27 11:04:48;;;;;;;6.82;3.65;;;;;;;31.27;29.74;100835.34;4992946;28;20711;-74
2023/06/27 11:07:17;;;;;;;6.68;3.72;;;;;;;31.40;30.30;100830.97;4992621;28;20386;-76
2023/06/27 11:09:56;;;;;;;8.73;3.83;;;;;;;31.61;30.22;100828.59;4993691;28;20526;-76
2023/06/27 11:12:22;;;;;;;4.93;3.53;;;;;;;31.82;30.38;100823.47;4993205;28;20417;-74
2023/06/27 11:14:53;;;;;;;8.87;3.90;;;;;;;32.17;29.57;100815.50;4993148;28;20386;-75
2023/06/27 11:17:19;;;;;;;8.13;3.60;;;;;;;31.74;29.23;100808.56;4993139;28;20472;-76
2023/06/27 11:19:44;;;;;;;7.97;3.95;;;;;;;31.57;29.87;100817.47;4992992;28;20473;-76
2023/06/27 11:22:11;;;;;;;8.90;4.15;;;;;;;31.72;30.45;100820.97;4992288;28;20377;-75